Time;durP1;ratioP1;P1;durP2;ratioP2;P2;SDS_P1;SDS_P2;PMS_P1;PMS_P2;Temp;Humidity;BMP_temperature;BMP_pressure;BME280_temperature;BME280_humidity;BME280_pressure;Samples;Min_cycle;Max_cycle;Signal;HPM_P1;HPM_P2
2022/01/12 00:01:28;;;;;;;120.18;44.70;;;;;;;2.50;100.00;103489.97;4694270;30;20047;-83
2022/01/12 00:03:57;;;;;;;139.80;47.08;;;;;;;2.51;100.00;103491.78;4726666;30;20051;-83
2022/01/12 00:06:25;;;;;;;189.63;50.00;;;;;;;2.52;100.00;103498.81;4710017;30;20079;-83
2022/01/12 00:08:54;;;;;;;145.57;45.70;;;;;;;2.53;100.00;103498.94;4703175;30;20043;-82
2022/01/12 00:11:23;;;;;;;165.38;50.35;;;;;;;2.54;100.00;103490.31;4716775;30;20056;-83
2022/01/12 00:13:52;;;;;;;156.93;48.88;;;;;;;2.56;100.00;103495.66;4719208;30;20047;-82
2022/01/12 00:16:22;;;;;;;;;;;;;;;2.55;100.00;103478.19;4715094;30;20048;-82
2022/01/12 00:18:50;;;;;;;165.75;48.17;;;;;;;2.56;100.00;103479.13;4740941;30;19926;-81
2022/01/12 00:21:19;;;;;;;163.93;48.42;;;;;;;2.57;100.00;103480.94;4727615;30;20268;-82
2022/01/12 00:23:47;;;;;;;166.20;50.42;;;;;;;2.58;100.00;103478.44;4691984;30;20041;-82
2022/01/12 00:34:38;;;;;;;195.40;49.55;;;;;;;2.62;100.00;103459.66;4718673;30;20410;-83
2022/01/12 00:37:06;;;;;;;182.95;50.00;;;;;;;2.63;100.00;103461.50;4718119;30;20056;-83
2022/01/12 00:39:35;;;;;;;214.23;53.33;;;;;;;2.65;100.00;103470.34;4714660;30;20052;-82
2022/01/12 00:42:09;;;;;;;211.15;52.67;;;;;;;2.65;100.00;103475.53;4733806;30;20070;-83
2022/01/12 00:44:43;;;;;;;234.77;54.83;;;;;;;2.67;100.00;103463.56;4749031;30;20067;-82
2022/01/12 00:47:11;;;;;;;244.90;55.85;;;;;;;2.68;100.00;103465.34;4719052;30;20056;-83
2022/01/12 00:49:41;;;;;;;203.68;51.90;;;;;;;2.69;100.00;103464.56;4703163;30;20043;-82
2022/01/12 00:52:10;;;;;;;225.60;54.13;;;;;;;2.69;100.00;103469.78;4734307;30;20063;-83
2022/01/12 00:54:39;;;;;;;291.77;61.60;;;;;;;2.70;100.00;103475.88;4703488;30;20044;-83
2022/01/12 00:57:08;;;;;;;291.13;60.05;;;;;;;2.70;100.00;103473.28;4714941;30;20044;-83
2022/01/12 00:59:36;;;;;;;333.73;62.70;;;;;;;2.69;100.00;103480.19;4716167;30;20064;-83
2022/01/12 01:02:06;;;;;;;244.27;55.10;;;;;;;2.69;100.00;103480.19;4733648;30;20043;-83
2022/01/12 01:04:35;;;;;;;285.65;58.45;;;;;;;2.71;100.00;103480.31;4703984;30;20599;-82
2022/01/12 01:07:04;;;;;;;278.52;56.85;;;;;;;2.71;100.00;103481.22;4712109;30;20063;-82
2022/01/12 01:09:36;;;;;;;322.00;63.10;;;;;;;2.71;100.00;103475.13;4695103;30;20048;-83
2022/01/12 01:12:05;;;;;;;265.52;58.28;;;;;;;2.71;100.00;103483.81;4728913;30;20064;-84
2022/01/12 01:14:47;;;;;;;275.67;56.97;;;;;;;2.73;100.00;103486.56;4702835;30;20063;-82
2022/01/12 01:25:33;;;;;;;449.63;73.80;;;;;;;2.79;100.00;103525.19;4697632;30;20027;-82
2022/01/12 01:28:04;;;;;;;349.42;62.75;;;;;;;2.80;100.00;103532.19;4718344;30;20059;-84
2022/01/12 01:30:35;;;;;;;314.52;62.90;;;;;;;2.82;100.00;103546.25;4728620;30;20339;-84
2022/01/12 01:33:08;;;;;;;481.85;74.55;;;;;;;2.80;100.00;103543.53;4718903;30;20479;-83
2022/01/12 01:35:39;;;;;;;439.23;69.45;;;;;;;2.82;100.00;103549.78;4722843;30;20048;-82
2022/01/12 01:38:08;;;;;;;415.75;66.63;;;;;;;2.84;100.00;103547.28;4734557;30;20056;-84
2022/01/12 01:40:41;;;;;;;390.85;64.28;;;;;;;2.83;100.00;103535.94;4709662;30;20071;-84
2022/01/12 01:43:27;;;;;;;443.00;67.95;;;;;;;2.84;100.00;103550.78;4731008;30;20047;-84
2022/01/12 01:54:19;;;;;;;409.35;63.95;;;;;;;2.86;100.00;103574.34;4739350;30;20249;-82
2022/01/12 01:56:49;;;;;;;505.55;71.07;;;;;;;2.87;100.00;103571.88;4712180;30;20059;-82
2022/01/12 01:59:18;;;;;;;510.52;70.95;;;;;;;2.89;100.00;103579.78;4693749;30;20044;-82
2022/01/12 02:01:49;;;;;;;578.70;78.55;;;;;;;2.90;100.00;103590.34;4702107;30;20059;-82
2022/01/12 02:04:18;;;;;;;486.00;66.10;;;;;;;2.91;100.00;103589.56;4712154;30;20158;-82
2022/01/12 02:06:46;;;;;;;478.85;67.28;;;;;;;2.93;100.00;103605.31;4705475;30;20048;-82
2022/01/12 02:09:16;;;;;;;395.10;61.22;;;;;;;2.95;100.00;103602.81;4735771;30;20047;-83
2022/01/12 02:11:55;;;;;;;359.35;57.50;;;;;;;2.96;100.00;103604.63;4684730;30;20040;-82
2022/01/12 02:14:29;;;;;;;407.40;61.42;;;;;;;2.97;100.00;103615.19;4700015;30;20058;-82
2022/01/12 02:17:04;;;;;;;290.30;54.42;;;;;;;2.99;100.00;103616.22;4702136;30;20048;-82
2022/01/12 02:19:49;;;;;;;292.25;55.15;;;;;;;3.00;100.00;103610.19;4721962;30;20535;-81
2022/01/12 02:36:54;;;;;;;346.30;58.13;;;;;;;3.01;100.00;103624.16;4732485;30;20047;-82
2022/01/12 02:39:52;;;;;;;277.60;52.53;;;;;;;3.00;100.00;103624.91;4705572;30;20163;-82
2022/01/12 02:42:21;;;;;;;324.55;55.00;;;;;;;3.00;100.00;103599.78;4678198;30;20066;-82
2022/01/12 02:50:42;;;;;;;208.05;45.83;;;;;;;2.92;100.00;103590.47;4726527;30;20071;-82
2022/01/12 02:56:00;;;;;;;186.95;43.25;;;;;;;2.85;100.00;103588.16;4719404;30;20055;-82
2022/01/12 02:58:29;;;;;;;141.32;37.70;;;;;;;2.79;100.00;103578.16;4677337;30;21066;-81
2022/01/12 03:03:48;;;;;;;196.82;41.90;;;;;;;2.71;100.00;103580.16;4737150;30;20044;-81
2022/01/12 03:06:21;;;;;;;243.45;45.08;;;;;;;2.67;100.00;103583.31;4738430;30;20071;-82
2022/01/12 03:08:51;;;;;;;121.40;33.83;;;;;;;2.63;100.00;103585.56;4719672;30;20044;-82
2022/01/12 03:11:22;;;;;;;197.80;37.42;;;;;;;2.57;100.00;103582.47;4730043;30;20040;-83
2022/01/12 03:13:54;;;;;;;230.00;38.25;;;;;;;2.51;100.00;103588.09;4687487;30;20060;-82
2022/01/12 03:16:25;;;;;;;731.20;66.05;;;;;;;2.46;100.00;103597.25;4712056;30;20621;-82
2022/01/12 03:18:59;;;;;;;253.35;42.28;;;;;;;2.41;100.00;103594.25;4716290;30;20055;-82
2022/01/12 03:21:33;;;;;;;357.10;46.55;;;;;;;2.37;100.00;103592.19;4756248;30;20608;-83
2022/01/12 03:24:03;;;;;;;362.38;48.45;;;;;;;2.34;100.00;103591.94;4728028;30;20420;-84
2022/01/12 03:26:33;;;;;;;368.00;44.78;;;;;;;2.30;100.00;103606.38;4726974;30;20364;-83
2022/01/12 03:29:03;;;;;;;356.50;41.42;;;;;;;2.26;100.00;103606.94;4717557;30;20052;-84
2022/01/12 03:31:35;;;;;;;294.27;35.20;;;;;;;2.22;100.00;103606.56;4727300;30;20352;-81
2022/01/12 03:34:11;;;;;;;686.25;54.10;;;;;;;2.14;100.00;103609.44;4711497;30;20519;-84
2022/01/12 03:39:10;;;;;;;580.42;55.05;;;;;;;2.05;100.00;103610.38;4728590;30;20055;-82
2022/01/12 03:41:42;;;;;;;335.88;35.97;;;;;;;2.02;100.00;103612.72;4731790;30;20055;-80
2022/01/12 03:44:13;;;;;;;397.05;45.65;;;;;;;2.00;100.00;103607.38;4679578;30;20057;-84
2022/01/12 03:46:49;;;;;;;629.45;53.50;;;;;;;1.96;100.00;103607.94;4727905;30;20515;-82
2022/01/12 03:49:21;;;;;;;414.70;40.35;;;;;;;1.89;100.00;103606.53;4712860;30;20052;-81
2022/01/12 03:51:50;;;;;;;336.83;35.70;;;;;;;1.86;100.00;103613.16;4718066;30;20044;-81
2022/01/12 03:54:20;;;;;;;;;;;;;;;1.84;100.00;103617.34;4729999;30;20174;-81
2022/01/12 03:56:50;;;;;;;171.63;31.05;;;;;;;1.83;100.00;103633.69;4719163;30;19926;-81
2022/01/12 03:59:18;;;;;;;115.53;24.95;;;;;;;1.83;100.00;103629.41;4728910;30;20056;-81
2022/01/12 04:01:47;;;;;;;273.80;35.05;;;;;;;1.83;100.00;103637.19;4685232;30;20045;-82
2022/01/12 04:04:24;;;;;;;202.43;28.65;;;;;;;1.84;100.00;103628.63;4745062;30;20051;-83
2022/01/12 04:09:45;;;;;;;131.82;29.70;;;;;;;1.80;100.00;103636.97;4735024;30;20060;-81
2022/01/12 04:12:16;;;;;;;62.78;23.35;;;;;;;1.80;100.00;103626.56;4709760;30;20044;-82
2022/01/12 04:14:44;;;;;;;108.82;29.48;;;;;;;1.80;100.00;103628.25;4748286;30;20048;-81
2022/01/12 04:17:14;;;;;;;135.50;31.98;;;;;;;1.78;100.00;103620.31;4708302;30;20059;-82
2022/01/12 04:19:45;;;;;;;141.98;31.67;;;;;;;1.81;100.00;103617.06;4704305;30;20064;-82
2022/01/12 04:25:01;;;;;;;134.57;30.95;;;;;;;1.80;100.00;103629.16;4715641;30;20063;-82
2022/01/12 04:27:32;;;;;;;114.60;30.90;;;;;;;1.80;100.00;103626.56;4728999;30;20332;-81
2022/01/12 04:30:00;;;;;;;70.15;24.73;;;;;;;1.80;100.00;103628.25;4736659;30;20067;-82
2022/01/12 04:32:35;;;;;;;148.80;37.38;;;;;;;1.79;100.00;103622.13;4686597;30;20554;-82
2022/01/12 04:35:04;;;;;;;174.70;36.92;;;;;;;1.79;100.00;103622.13;4716081;30;20059;-82
2022/01/12 04:37:33;;;;;;;192.18;37.97;;;;;;;1.78;100.00;103624.59;4716638;30;20684;-82
2022/01/12 04:40:01;;;;;;;193.65;35.67;;;;;;;1.78;100.00;103622.00;4720621;30;20052;-82
2022/01/12 04:42:30;;;;;;;207.75;34.83;;;;;;;1.76;100.00;103624.50;4706623;30;20285;-82
2022/01/12 04:45:04;;;;;;;334.25;46.20;;;;;;;1.73;100.00;103616.44;4729838;30;20067;-84
2022/01/12 04:50:16;;;;;;;521.03;48.33;;;;;;;1.65;100.00;103615.78;4721865;30;20248;-84
2022/01/12 04:52:45;;;;;;;475.70;43.08;;;;;;;1.63;100.00;103621.66;4710012;30;20373;-82
2022/01/12 04:55:14;;;;;;;397.48;38.20;;;;;;;1.60;100.00;103622.28;4666371;30;20065;-82
2022/01/12 04:57:43;;;;;;;221.93;27.15;;;;;;;1.60;100.00;103616.19;4676734;30;20534;-82
2022/01/12 05:00:15;;;;;;;225.07;26.92;;;;;;;1.60;100.00;103617.06;4727556;30;20052;-82
2022/01/12 05:13:46;;;;;;;295.70;28.75;;;;;;;1.44;100.00;103656.47;4737012;30;20044;-81
2022/01/12 05:16:16;;;;;;;352.73;30.63;;;;;;;1.41;100.00;103653.59;4712122;30;20051;-81
2022/01/12 05:18:46;;;;;;;369.85;33.55;;;;;;;1.37;100.00;103651.53;4744897;30;20052;-80
2022/01/12 05:21:17;;;;;;;156.45;23.50;;;;;;;1.33;100.00;103658.13;4704006;30;20044;-83
2022/01/12 05:23:49;;;;;;;273.13;26.58;;;;;;;1.30;100.00;103662.16;4732602;30;20063;-80
2022/01/12 05:26:17;;;;;;;314.75;31.23;;;;;;;1.28;100.00;103663.72;4743847;30;20229;-83
2022/01/12 05:28:46;;;;;;;280.83;29.73;;;;;;;1.23;100.00;103668.53;4704569;30;20037;-82
2022/01/12 05:31:15;;;;;;;209.20;23.83;;;;;;;1.20;100.00;103675.13;4719492;30;20507;-81
2022/01/12 05:33:48;;;;;;;206.82;24.20;;;;;;;1.18;100.00;103667.22;4698057;30;20059;-80
2022/01/12 05:36:18;;;;;;;200.07;25.50;;;;;;;1.14;100.00;103666.03;4682266;30;20551;-81
2022/01/12 05:38:48;;;;;;;196.38;25.55;;;;;;;1.10;100.00;103673.44;4731701;30;20052;-81
2022/01/12 05:41:18;;;;;;;208.43;25.73;;;;;;;1.06;100.00;103681.72;4723889;30;20039;-82
2022/01/12 05:43:47;;;;;;;152.40;23.27;;;;;;;1.02;100.00;103680.56;4723068;30;20052;-81
2022/01/12 05:46:21;;;;;;;128.18;22.08;;;;;;;0.98;100.00;103678.44;4705246;30;20055;-80
2022/01/12 05:51:46;;;;;;;86.22;19.75;;;;;;;0.92;100.00;103680.50;4742912;30;20056;-81
2022/01/12 05:54:15;;;;;;;46.42;15.88;;;;;;;0.90;100.00;103679.47;4727984;30;20403;-82
2022/01/12 05:56:44;;;;;;;43.15;13.75;;;;;;;0.88;100.00;103686.22;4692812;30;20041;-81
2022/01/12 05:59:13;;;;;;;101.13;20.05;;;;;;;0.87;100.00;103687.91;4722943;30;20051;-81
2022/01/12 06:01:41;;;;;;;122.80;21.38;;;;;;;0.81;100.00;103683.84;4713471;30;20059;-80
2022/01/12 06:04:10;;;;;;;60.58;17.88;;;;;;;0.76;100.00;103692.16;4681227;30;20063;-82
2022/01/12 06:06:39;;;;;;;33.20;14.18;;;;;;;0.74;100.00;103698.88;4702374;30;20044;-82
2022/01/12 06:09:08;;;;;;;73.38;20.38;;;;;;;0.75;100.00;103694.59;4729544;30;20055;-83
2022/01/12 06:11:37;;;;;;;40.90;16.38;;;;;;;0.74;100.00;103704.09;4728580;30;20040;-82
2022/01/12 06:14:07;;;;;;;45.28;15.98;;;;;;;0.75;100.00;103702.38;4745729;30;20043;-82
2022/01/12 06:16:36;;;;;;;39.08;15.55;;;;;;;0.75;100.00;103711.06;4696635;30;20049;-82
2022/01/12 06:19:04;;;;;;;39.63;15.40;;;;;;;0.78;100.00;103718.25;4701447;30;20052;-82
2022/01/12 06:21:43;;;;;;;39.95;14.60;;;;;;;0.78;100.00;103716.56;4716856;30;20047;-82
2022/01/12 06:24:18;;;;;;;53.55;16.10;;;;;;;0.81;100.00;103715.00;4697847;30;20044;-82
2022/01/12 06:26:47;;;;;;;291.67;29.73;;;;;;;0.81;100.00;103708.13;4745354;30;20059;-82
2022/01/12 06:31:51;;;;;;;118.93;20.33;;;;;;;0.81;100.00;103710.72;4716520;30;20551;-82
2022/01/12 06:34:21;;;;;;;91.68;16.85;;;;;;;0.84;100.00;103721.38;4691320;30;20074;-82
2022/01/12 06:36:50;;;;;;;87.07;17.42;;;;;;;0.85;100.00;103727.47;4737845;30;20387;-82
2022/01/12 06:39:22;;;;;;;67.78;16.08;;;;;;;0.85;100.00;103724.88;4727033;30;20040;-82
2022/01/12 06:41:54;;;;;;;159.88;21.77;;;;;;;0.85;100.00;103717.09;4721471;30;20048;-81
2022/01/12 06:44:25;;;;;;;156.25;22.30;;;;;;;0.86;100.00;103724.13;4704804;30;20399;-81
2022/01/12 06:46:57;;;;;;;310.45;29.77;;;;;;;0.83;100.00;103721.25;4706140;30;20259;-82
2022/01/12 06:49:25;;;;;;;;;;;;;;;0.80;100.00;103731.38;4711338;30;20033;-82
2022/01/12 06:51:54;;;;;;;231.07;23.10;;;;;;;0.75;100.00;103729.25;4691762;30;20138;-82
2022/01/12 06:54:23;;;;;;;130.05;17.35;;;;;;;0.72;100.00;103726.41;4752565;30;20059;-82
2022/01/12 06:56:51;;;;;;;100.43;16.83;;;;;;;0.71;100.00;103734.94;4732055;30;20044;-78
2022/01/12 06:59:20;;;;;;;101.57;19.67;;;;;;;0.69;100.00;103741.69;4751626;30;20059;-82
2022/01/12 07:01:51;;;;;;;60.67;10.80;;;;;;;0.68;100.00;103747.66;4697981;30;20055;-82
2022/01/12 07:04:28;;;;;;;58.33;13.15;;;;;;;0.66;100.00;103758.66;4688232;30;20063;-81
2022/01/12 07:06:57;;;;;;;92.63;14.95;;;;;;;0.65;100.00;103752.56;4694925;30;20692;-81
2022/01/12 07:09:25;;;;;;;55.85;13.13;;;;;;;0.64;100.00;103747.22;4715286;30;20048;-81
2022/01/12 07:12:01;;;;;;;52.08;11.90;;;;;;;0.61;100.00;103755.66;4711961;30;20052;-81
2022/01/12 07:14:33;;;;;;;84.57;13.15;;;;;;;0.58;100.00;103757.97;4744749;30;20044;-81
2022/01/12 07:17:02;;;;;;;93.47;15.13;;;;;;;0.56;100.00;103759.53;4722595;30;20078;-81
2022/01/12 07:19:30;;;;;;;49.38;12.35;;;;;;;0.55;100.00;103765.50;4686817;30;20052;-78
2022/01/12 07:21:59;;;;;;;85.38;14.38;;;;;;;0.52;100.00;103765.22;4666526;30;20557;-81
2022/01/12 07:24:27;;;;;;;46.88;11.60;;;;;;;0.51;100.00;103777.28;4703557;30;20044;-81
2022/01/12 07:26:56;;;;;;;34.15;12.05;;;;;;;0.50;100.00;103779.72;4688140;30;20067;-81
2022/01/12 07:29:24;;;;;;;95.00;16.90;;;;;;;0.51;100.00;103782.47;4732908;30;20357;-80
2022/01/12 07:31:53;;;;;;;69.65;12.80;;;;;;;0.51;100.00;103781.53;4715342;30;20047;-82
2022/01/12 07:34:21;;;;;;;55.88;13.13;;;;;;;0.51;100.00;103785.06;4689696;30;20166;-82
2022/01/12 07:36:49;;;;;;;84.88;14.13;;;;;;;0.51;100.00;103797.09;4710000;30;20048;-81
2022/01/12 07:39:18;;;;;;;137.30;17.45;;;;;;;0.48;100.00;103784.78;4710998;30;20158;-82
2022/01/12 07:41:46;;;;;;;156.48;19.20;;;;;;;0.46;100.00;103782.81;4695563;30;20047;-81
2022/01/12 07:44:15;;;;;;;112.45;15.07;;;;;;;0.43;100.00;103796.41;4707255;30;20487;-82
2022/01/12 07:46:43;;;;;;;103.07;16.08;;;;;;;0.40;100.00;103801.34;4731310;30;20526;-81
2022/01/12 07:49:12;;;;;;;65.68;12.27;;;;;;;0.41;100.00;103799.63;4722839;30;20056;-82
2022/01/12 07:51:40;;;;;;;95.72;13.10;;;;;;;0.41;100.00;103784.97;4702253;30;20040;-81
2022/01/12 07:54:09;;;;;;;107.90;13.82;;;;;;;0.39;100.00;103791.72;4696009;30;20040;-81
2022/01/12 07:56:37;;;;;;;153.88;17.75;;;;;;;0.38;100.00;103793.41;4728171;30;20052;-81
2022/01/12 07:59:06;;;;;;;114.43;14.77;;;;;;;0.37;100.00;103790.66;4714535;30;20055;-82
2022/01/12 08:01:34;;;;;;;117.40;13.88;;;;;;;0.36;100.00;103799.22;4721939;30;20052;-80
2022/01/12 08:04:03;;;;;;;115.22;14.75;;;;;;;0.37;100.00;103795.84;4711820;30;20052;-81
2022/01/12 08:06:31;;;;;;;93.57;12.00;;;;;;;0.36;100.00;103800.13;4715986;30;20052;-81
2022/01/12 08:09:00;;;;;;;55.97;11.40;;;;;;;0.36;100.00;103807.91;4697835;30;20067;-81
2022/01/12 08:11:29;;;;;;;138.93;14.93;;;;;;;0.34;100.00;103811.13;4697636;30;20679;-82
2022/01/12 08:13:57;;;;;;;114.28;15.82;;;;;;;0.30;100.00;103812.56;4688179;30;20061;-82
2022/01/12 08:16:26;;;;;;;97.47;15.25;;;;;;;0.28;100.00;103816.66;4710269;30;20359;-81
2022/01/12 08:18:56;;;;;;;67.80;13.10;;;;;;;0.26;100.00;103815.59;4719449;30;20056;-82
2022/01/12 08:21:27;;;;;;;72.05;12.23;;;;;;;0.25;100.00;103813.78;4705460;30;20059;-83
2022/01/12 08:23:55;;;;;;;71.00;13.50;;;;;;;0.23;100.00;103828.31;4715249;30;20064;-83
2022/01/12 08:26:32;;;;;;;146.27;17.48;;;;;;;0.20;100.00;103835.78;4718523;30;20059;-82
2022/01/12 08:29:01;;;;;;;134.88;16.52;;;;;;;0.18;100.00;103843.41;4703743;30;20072;-81
2022/01/12 08:31:29;;;;;;;105.30;17.48;;;;;;;0.16;100.00;103849.25;4707884;30;20537;-82
2022/01/12 08:33:58;;;;;;;123.82;15.00;;;;;;;0.17;100.00;103851.06;4711130;30;20052;-83
2022/01/12 08:36:27;;;;;;;160.43;15.43;;;;;;;0.19;100.00;103850.44;4708115;30;20043;-82
2022/01/12 08:38:59;;;;;;;154.13;15.43;;;;;;;0.18;100.00;103858.97;4712464;30;20060;-82
2022/01/12 08:41:28;;;;;;;243.60;23.23;;;;;;;0.18;100.00;103863.25;4709259;30;20082;-82
2022/01/12 08:43:56;;;;;;;159.48;20.17;;;;;;;0.19;100.00;103865.09;4717258;30;20052;-82
2022/01/12 08:46:25;;;;;;;172.32;15.65;;;;;;;0.21;100.00;103865.22;4715547;30;21114;-82
2022/01/12 08:48:53;;;;;;;222.18;21.83;;;;;;;0.26;100.00;103863.97;4705561;30;20070;-82
2022/01/12 08:51:22;;;;;;;197.85;18.08;;;;;;;0.30;100.00;103864.44;4729546;30;20668;-82
2022/01/12 08:53:51;;;;;;;205.55;19.98;;;;;;;0.34;100.00;103860.41;4744967;30;20048;-82
2022/01/12 08:56:19;;;;;;;144.88;16.63;;;;;;;0.39;100.00;103864.34;4678479;30;20286;-83
2022/01/12 08:58:49;;;;;;;185.60;17.02;;;;;;;0.41;100.00;103857.63;4731622;30;20063;-83
2022/01/12 09:01:17;;;;;;;205.48;17.50;;;;;;;0.45;100.00;103864.00;4720794;30;20289;-82
2022/01/12 09:03:48;;;;;;;160.25;15.68;;;;;;;0.46;100.00;103860.66;4741415;30;20423;-81
2022/01/12 09:06:16;;;;;;;102.20;10.93;;;;;;;0.46;100.00;103868.44;4720287;30;20300;-82
2022/01/12 09:08:45;;;;;;;162.25;17.25;;;;;;;0.44;100.00;103868.28;4706494;30;20415;-79
2022/01/12 09:11:14;;;;;;;148.13;17.27;;;;;;;0.43;100.00;103881.13;4678708;30;20059;-80
2022/01/12 09:13:43;;;;;;;182.48;19.98;;;;;;;0.42;100.00;103874.09;4711745;30;20052;-80
2022/01/12 09:16:13;;;;;;;149.43;18.58;;;;;;;0.44;100.00;103875.19;4701017;30;20056;-82
2022/01/12 09:18:43;;;;;;;;;;;;;;;0.46;100.00;103886.59;4726632;30;20060;-81
2022/01/12 09:21:12;;;;;;;137.52;15.82;;;;;;;0.47;100.00;103893.59;4725489;30;19933;-82
2022/01/12 09:23:40;;;;;;;428.55;36.60;;;;;;;0.48;100.00;103888.56;4703569;30;20067;-81
2022/01/12 09:26:08;;;;;;;1416.93;104.38;;;;;;;0.52;100.00;103897.53;4680050;30;20404;-81
2022/01/12 09:28:37;;;;;;;765.70;56.80;;;;;;;0.57;100.00;103889.41;4715254;30;20521;-82
2022/01/12 09:31:05;;;;;;;157.90;17.23;;;;;;;0.62;100.00;103895.03;4701015;30;20040;-82
2022/01/12 09:33:36;;;;;;;834.75;63.35;;;;;;;0.65;100.00;103894.41;4721342;30;20451;-82
2022/01/12 09:36:05;;;;;;;219.43;21.70;;;;;;;0.72;100.00;103902.91;4728739;30;20044;-82
2022/01/12 09:38:33;;;;;;;1615.63;113.10;;;;;;;0.78;100.00;103915.53;4678791;30;20486;-82
2022/01/12 09:41:02;;;;;;;1132.60;87.85;;;;;;;0.84;100.00;103910.00;4695066;30;20036;-83
2022/01/12 09:43:34;;;;;;;1193.78;99.65;;;;;;;0.87;100.00;103908.59;4724833;30;20283;-82
2022/01/12 09:46:03;;;;;;;1400.25;97.93;;;;;;;0.92;100.00;103903.81;4685258;30;20048;-83
2022/01/12 09:48:36;;;;;;;293.23;25.85;;;;;;;0.96;100.00;103913.72;4714716;30;20056;-83
2022/01/12 09:51:07;;;;;;;1043.15;78.13;;;;;;;0.99;100.00;103913.09;4698444;30;20052;-82
2022/01/12 09:53:39;;;;;;;915.90;74.05;;;;;;;1.04;100.00;103917.00;4704973;30;20055;-82
2022/01/12 09:56:16;;;;;;;833.60;69.88;;;;;;;1.09;100.00;103916.66;4688704;30;20138;-81
2022/01/12 09:58:53;;;;;;;214.27;22.95;;;;;;;1.10;100.00;103910.69;4726326;30;20044;-81
2022/01/12 10:01:39;;;;;;;196.93;23.08;;;;;;;1.13;100.00;103931.72;4687331;30;20065;-82
2022/01/12 10:04:16;;;;;;;153.93;18.23;;;;;;;1.16;100.00;103944.09;4714338;30;21067;-82
2022/01/12 10:06:53;;;;;;;175.55;19.85;;;;;;;1.20;100.00;103942.72;4735786;30;20063;-84
2022/01/12 10:09:25;;;;;;;131.75;17.60;;;;;;;1.23;100.00;103943.91;4718895;30;20063;-82
2022/01/12 10:12:04;;;;;;;72.18;10.93;;;;;;;1.26;100.00;103933.75;4712397;30;20220;-82
2022/01/12 10:14:45;;;;;;;119.30;14.27;;;;;;;1.32;100.00;103931.75;4730609;30;20439;-83
2022/01/12 10:17:14;;;;;;;75.32;12.60;;;;;;;1.37;100.00;103939.94;4694142;30;20067;-83
2022/01/12 10:19:45;;;;;;;85.15;10.23;;;;;;;1.44;100.00;103938.81;4690392;30;20048;-82
2022/01/12 10:22:16;;;;;;;115.45;14.10;;;;;;;1.46;100.00;103925.19;4701375;30;20051;-80
2022/01/12 10:24:45;;;;;;;127.03;16.13;;;;;;;1.43;100.00;103919.69;4712994;30;20534;-82
2022/01/12 10:27:17;;;;;;;127.97;15.47;;;;;;;1.44;100.00;103912.84;4674384;30;20403;-81
2022/01/12 10:29:54;;;;;;;163.18;19.83;;;;;;;1.46;100.00;103906.09;4722651;30;20306;-83
2022/01/12 10:32:24;;;;;;;143.50;18.65;;;;;;;1.48;100.00;103902.84;4719873;30;20412;-83
2022/01/12 10:34:52;;;;;;;151.98;17.25;;;;;;;1.53;100.00;103903.22;4680367;30;20277;-82
2022/01/12 10:37:22;;;;;;;169.35;18.70;;;;;;;1.58;100.00;103912.34;4727013;30;20052;-83
2022/01/12 10:39:51;;;;;;;91.13;12.27;;;;;;;1.60;100.00;103903.00;4683229;30;20064;-82
2022/01/12 10:42:28;;;;;;;101.45;12.27;;;;;;;1.65;100.00;103903.44;4717911;30;20043;-83
2022/01/12 10:45:04;;;;;;;116.65;14.23;;;;;;;1.66;100.00;103900.94;4720504;30;20362;-83
2022/01/12 10:47:35;;;;;;;125.45;15.18;;;;;;;1.65;100.00;103890.44;4724977;30;20060;-82
2022/01/12 10:50:07;;;;;;;128.38;15.85;;;;;;;1.67;100.00;103899.28;4690053;30;20048;-83
2022/01/12 10:52:49;;;;;;;134.60;13.70;;;;;;;1.70;100.00;103905.66;4706403;30;20056;-84
2022/01/12 10:55:18;;;;;;;166.45;18.88;;;;;;;1.75;100.00;103906.06;4737971;30;20071;-83
2022/01/12 10:57:49;;;;;;;148.57;15.00;;;;;;;1.82;100.00;103912.72;4679448;30;20048;-84
2022/01/12 11:00:25;;;;;;;132.30;17.38;;;;;;;1.91;100.00;103910.91;4734570;30;20041;-83
2022/01/12 11:02:59;;;;;;;127.20;16.42;;;;;;;1.97;100.00;103908.88;4695395;30;20103;-82
2022/01/12 11:05:30;;;;;;;149.27;15.80;;;;;;;2.04;100.00;103906.03;4715963;30;20414;-83
2022/01/12 11:07:58;;;;;;;197.38;22.63;;;;;;;2.11;100.00;103904.84;4718991;30;20625;-83
2022/01/12 11:10:27;;;;;;;134.00;17.55;;;;;;;2.16;100.00;103900.97;4726813;30;20072;-83
2022/01/12 11:12:55;;;;;;;133.20;18.10;;;;;;;2.23;100.00;103900.72;4672267;30;20495;-82
2022/01/12 11:15:24;;;;;;;129.07;16.63;;;;;;;2.29;100.00;103895.13;4712182;30;20048;-82
2022/01/12 11:17:53;;;;;;;150.98;18.42;;;;;;;2.34;100.00;103886.94;4720076;30;20265;-81
2022/01/12 11:20:30;;;;;;;157.95;20.77;;;;;;;2.41;100.00;103895.25;4688711;30;20062;-80
2022/01/12 11:23:05;;;;;;;121.05;16.55;;;;;;;2.47;100.00;103893.19;4712420;30;20309;-80
2022/01/12 11:25:39;;;;;;;139.43;19.15;;;;;;;2.51;100.00;103884.84;4721942;30;20063;-81
2022/01/12 11:28:20;;;;;;;91.82;15.57;;;;;;;2.56;100.00;103875.72;4710884;30;20952;-80
2022/01/12 11:30:50;;;;;;;;;;;;;;;2.61;100.00;103874.44;4684212;30;20053;-79
2022/01/12 11:33:21;;;;;;;96.75;13.95;;;;;;;2.66;100.00;103875.72;4701504;30;19938;-79
2022/01/12 11:35:53;;;;;;;190.82;19.50;;;;;;;2.71;100.00;103874.41;4686614;30;20049;-80
2022/01/12 11:38:30;;;;;;;111.65;16.75;;;;;;;2.77;100.00;103878.31;4697236;30;20412;-79
2022/01/12 11:41:15;;;;;;;117.35;17.77;;;;;;;2.85;100.00;103875.56;4710794;30;20083;-79
2022/01/12 11:43:46;;;;;;;124.68;20.20;;;;;;;2.91;100.00;103869.94;4700871;30;20530;-78
2022/01/12 11:46:19;;;;;;;137.27;19.38;;;;;;;2.96;100.00;103854.72;4686832;30;20040;-78
2022/01/12 11:48:53;;;;;;;103.78;15.57;;;;;;;3.02;100.00;103857.81;4700489;30;20048;-79
2022/01/12 11:51:42;;;;;;;167.65;20.23;;;;;;;3.07;100.00;103862.63;4710210;30;20064;-79
2022/01/12 11:54:21;;;;;;;190.55;21.67;;;;;;;3.12;100.00;103868.22;4723163;30;20063;-79
2022/01/12 11:56:54;;;;;;;154.40;19.00;;;;;;;3.16;100.00;103870.28;4722235;30;20063;-78
2022/01/12 11:59:24;;;;;;;164.23;21.77;;;;;;;3.22;100.00;103877.72;4713292;30;20508;-79
2022/01/12 12:02:09;;;;;;;136.88;19.40;;;;;;;3.26;100.00;103884.97;4685274;30;20365;-81
2022/01/12 12:04:38;;;;;;;184.25;23.92;;;;;;;3.30;100.00;103900.09;4706598;30;20053;-82
2022/01/12 12:07:06;;;;;;;145.55;25.17;;;;;;;3.33;100.00;103905.56;4692327;30;20053;-79
2022/01/12 12:09:43;;;;;;;105.60;18.42;;;;;;;3.37;100.00;103905.03;4732513;30;20060;-80
2022/01/12 12:12:16;;;;;;;145.25;24.23;;;;;;;3.41;100.00;103909.69;4709340;30;20435;-79
2022/01/12 12:14:53;;;;;;;112.57;24.40;;;;;;;3.44;100.00;103898.59;4709215;30;20674;-81
2022/01/12 12:17:23;;;;;;;172.63;29.23;;;;;;;3.48;100.00;103883.34;4708688;30;20063;-77
2022/01/12 12:19:53;;;;;;;131.63;20.17;;;;;;;3.53;100.00;103880.19;4698592;30;20278;-80
2022/01/12 12:22:25;;;;;;;146.90;24.55;;;;;;;3.58;100.00;103878.88;4680080;30;20048;-80
2022/01/12 12:24:57;;;;;;;143.90;24.90;;;;;;;3.62;100.00;103883.53;4698190;30;20061;-81
2022/01/12 12:27:29;;;;;;;111.55;21.92;;;;;;;3.64;100.00;103881.97;4717240;30;20060;-80
2022/01/12 12:29:58;;;;;;;148.63;26.17;;;;;;;3.70;100.00;103880.78;4718488;30;20063;-80
2022/01/12 12:32:45;;;;;;;163.73;27.35;;;;;;;3.73;100.00;103879.19;4712147;30;20052;-79
2022/01/12 12:35:28;;;;;;;165.45;28.77;;;;;;;3.76;100.00;103879.41;4702033;30;20052;-79
2022/01/12 12:38:09;;;;;;;136.45;25.67;;;;;;;3.81;100.00;103884.22;4718396;30;20056;-79
2022/01/12 12:40:48;;;;;;;102.80;26.48;;;;;;;3.84;100.00;103879.25;4734258;30;20293;-80